OMFJ/FJR METAR and TAF weather

Enter ICAO airport designator
Station Type Date Time Source
OMFJ METAR 2019/12/09 06:00 UTC NOAA

OMFJ 090600Z 15003KT 080V240 9999 FEW020 26/19 Q1018 A3008


Station Type Date Time Source
OMFJ Decoded METAR 2019/12/09 06:00 UTC NOAA

Fujairah, United Arab Emirates (OMFJ) 25-06N 056-20E 28M
Dec 09, 2019 - 01:00 AM EST / 2019.12.09 0600 UTC
Wind: from the SSE (150 degrees) at 3 MPH (3 KT) (direction variable):0
Visibility: greater than 7 mile(s):0
Sky conditions: mostly clear
Temperature: 78 F (26 C)
Dew Point: 66 F (19 C)
Relative Humidity: 65%
Pressure (altimeter): 30.08 in. Hg (1018 hPa)
ob: OMFJ 090600Z 15003KT 080V240 9999 FEW020 26/19 Q1018 A3008
cycle: 6

Station Type Date Time Source
OMFJ TAF 2019/12/09 06:09 UTC NOAA

TAF OMFJ 090500Z 0906/1012 09008KT 7000 FEW025 PROB30 0909/0915 VRB15G25KT 5000 TSRA FEW030CB
BECMG 0914/0916 VRB03KT
TEMPO 0920/1003 29005KT 5000 HZ

Example: see airport list